Time;durP1;ratioP1;P1;durP2;ratioP2;P2;SDS_P1;SDS_P2;PMS_P1;PMS_P2;Temp;Humidity;BMP_temperature;BMP_pressure;BME280_temperature;BME280_humidity;BME280_pressure;Samples;Min_cycle;Max_cycle;Signal;HPM_P1;HPM_P2
2022/01/08 00:01:30;;;;;;;7.95;1.50;;;2.50;99.90;;;;;;4806870;29;20467;-78
2022/01/08 00:03:56;;;;;;;8.82;1.60;;;2.50;99.90;;;;;;4808587;29;20129;-77
2022/01/08 00:06:22;;;;;;;3.20;1.60;;;2.60;99.90;;;;;;4808497;29;20414;-77
2022/01/08 00:08:49;;;;;;;4.43;1.63;;;2.50;99.90;;;;;;4808041;29;20050;-77
2022/01/08 00:11:18;;;;;;;6.13;1.70;;;2.50;99.90;;;;;;4806406;29;20059;-78
2022/01/08 00:13:44;;;;;;;4.32;1.70;;;2.60;99.90;;;;;;4806805;29;20057;-77
2022/01/08 00:16:10;;;;;;;5.00;2.05;;;2.60;99.90;;;;;;4807680;29;20414;-78
2022/01/08 00:18:35;;;;;;;9.23;2.67;;;2.50;99.90;;;;;;4806841;29;20071;-77
2022/01/08 00:21:01;;;;;;;4.55;2.47;;;2.50;99.90;;;;;;4807374;29;20047;-78
2022/01/08 00:23:27;;;;;;;4.82;1.83;;;2.50;99.90;;;;;;4808295;29;20050;-77
2022/01/08 00:25:52;;;;;;;4.00;1.90;;;2.40;99.90;;;;;;4806652;29;20061;-77
2022/01/08 00:28:18;;;;;;;4.10;1.92;;;2.40;99.90;;;;;;4806915;29;20047;-77
2022/01/08 00:30:45;;;;;;;3.38;1.85;;;2.40;99.90;;;;;;4807559;29;20476;-77
2022/01/08 00:33:10;;;;;;;2.95;1.85;;;2.40;99.90;;;;;;4807850;29;20046;-77
2022/01/08 00:35:36;;;;;;;4.13;1.90;;;2.30;99.90;;;;;;4807311;29;20058;-77
2022/01/08 00:38:02;;;;;;;3.58;2.05;;;2.30;99.90;;;;;;4808108;29;20050;-78
2022/01/08 00:40:27;;;;;;;4.95;2.70;;;2.30;99.90;;;;;;4806708;29;20125;-77
2022/01/08 00:42:53;;;;;;;7.53;2.55;;;2.20;99.90;;;;;;4807297;29;20486;-77
2022/01/08 00:45:19;;;;;;;5.60;2.53;;;2.20;99.90;;;;;;4807854;29;20111;-77
2022/01/08 00:47:44;;;;;;;5.45;2.78;;;2.10;99.90;;;;;;4807509;29;20462;-77
2022/01/08 00:50:12;;;;;;;5.72;2.55;;;2.20;99.90;;;;;;4806633;29;20086;-77
2022/01/08 00:52:38;;;;;;;6.13;2.45;;;2.20;99.90;;;;;;4807280;29;20051;-78
2022/01/08 00:55:05;;;;;;;8.55;3.20;;;2.20;99.90;;;;;;4805348;29;20401;-77
2022/01/08 00:57:30;;;;;;;5.65;2.95;;;2.30;99.90;;;;;;4806539;29;20062;-77
2022/01/08 00:59:56;;;;;;;7.38;2.90;;;2.30;99.90;;;;;;4807098;29;20526;-77
2022/01/08 01:02:22;;;;;;;6.55;3.15;;;2.30;99.90;;;;;;4807595;29;20402;-77
2022/01/08 01:04:47;;;;;;;5.55;3.00;;;2.30;99.90;;;;;;4806883;29;20065;-77
2022/01/08 01:07:13;;;;;;;5.78;2.95;;;2.30;99.90;;;;;;4807520;29;20058;-77
2022/01/08 01:09:39;;;;;;;6.93;3.50;;;2.40;99.90;;;;;;4807386;29;20046;-77
2022/01/08 01:12:05;;;;;;;7.18;3.00;;;2.40;99.90;;;;;;4806862;29;20398;-77
2022/01/08 01:14:31;;;;;;;9.02;3.00;;;2.40;99.90;;;;;;4807296;29;20398;-77
2022/01/08 01:16:57;;;;;;;6.47;2.58;;;2.40;99.90;;;;;;4806974;29;20055;-76
2022/01/08 01:19:22;;;;;;;7.60;3.00;;;2.30;99.90;;;;;;4807253;29;20055;-76
2022/01/08 01:21:49;;;;;;;6.45;2.80;;;2.40;99.90;;;;;;4806322;29;20074;-76
2022/01/08 01:24:19;;;;;;;5.93;2.70;;;2.20;99.90;;;;;;4802912;29;20050;-78
2022/01/08 01:27:23;;;;;;;5.90;2.47;;;2.30;99.90;;;;;;4803799;29;20062;-76
2022/01/08 01:30:00;;;;;;;4.75;2.95;;;2.20;99.90;;;;;;4806104;29;20054;-77
2022/01/08 01:49:05;;;;;;;15.88;3.90;;;2.40;99.90;;;;;;4790179;29;20066;-77
2022/01/08 01:51:31;;;;;;;8.07;4.22;;;2.40;99.90;;;;;;4801710;29;20047;-77
2022/01/08 01:53:57;;;;;;;8.35;3.85;;;2.40;99.90;;;;;;4795734;29;20051;-77
2022/01/08 01:56:22;;;;;;;9.10;4.10;;;2.40;99.90;;;;;;4805691;29;20404;-76
2022/01/08 01:58:48;;;;;;;8.85;3.80;;;2.50;99.90;;;;;;4806036;29;20050;-77
2022/01/08 02:01:14;;;;;;;8.63;3.78;;;2.50;99.90;;;;;;4806625;29;20478;-76
2022/01/08 02:03:39;;;;;;;5.35;2.72;;;2.50;99.90;;;;;;4805398;29;20505;-76
2022/01/08 02:06:06;;;;;;;6.93;3.20;;;2.40;99.90;;;;;;4804700;29;20086;-77
2022/01/08 02:08:32;;;;;;;9.05;3.53;;;2.40;99.90;;;;;;4806373;29;20134;-77
2022/01/08 02:10:57;;;;;;;8.18;3.55;;;2.50;99.90;;;;;;4804795;29;20138;-77
2022/01/08 02:13:24;;;;;;;6.38;3.90;;;2.50;99.90;;;;;;4806051;29;20406;-77
2022/01/08 02:15:52;;;;;;;8.45;3.47;;;2.50;99.90;;;;;;4804738;29;20111;-77
2022/01/08 02:18:19;;;;;;;7.15;3.28;;;2.40;99.90;;;;;;4806336;29;20055;-76
2022/01/08 02:20:44;;;;;;;10.73;3.33;;;2.30;99.90;;;;;;4805053;29;20139;-76
2022/01/08 02:23:10;;;;;;;7.10;3.33;;;2.30;99.90;;;;;;4805710;29;20482;-77
2022/01/08 02:25:36;;;;;;;7.68;3.50;;;2.30;99.90;;;;;;4805093;29;20402;-77
2022/01/08 02:28:05;;;;;;;7.05;3.58;;;2.20;99.90;;;;;;4805633;29;20059;-77
2022/01/08 02:30:31;;;;;;;8.40;3.28;;;2.10;99.90;;;;;;4804870;29;20107;-77
2022/01/08 02:32:56;;;;;;;5.50;3.15;;;2.00;99.90;;;;;;4789615;29;20055;-77
2022/01/08 02:35:22;;;;;;;7.15;3.80;;;2.00;99.90;;;;;;4804860;29;20046;-77
2022/01/08 02:37:49;;;;;;;10.63;3.30;;;2.00;99.90;;;;;;4804828;29;20405;-77
2022/01/08 02:40:15;;;;;;;7.28;3.25;;;1.90;99.90;;;;;;4805354;29;20058;-77
2022/01/08 02:42:50;;;;;;;9.90;3.55;;;1.90;99.90;;;;;;4805697;29;20133;-77
2022/01/08 02:45:16;;;;;;;9.82;3.60;;;1.80;99.90;;;;;;4805485;29;20059;-77
2022/01/08 02:47:42;;;;;;;9.13;3.55;;;1.80;99.90;;;;;;4805850;29;20104;-77
2022/01/08 02:50:08;;;;;;;7.05;3.38;;;1.70;99.90;;;;;;4805359;29;20094;-77
2022/01/08 02:52:33;;;;;;;11.70;3.63;;;1.70;99.90;;;;;;4804547;29;20103;-77
2022/01/08 02:54:59;;;;;;;8.32;3.60;;;1.70;99.90;;;;;;4804199;29;20059;-77
2022/01/08 02:57:25;;;;;;;7.35;3.25;;;1.60;99.90;;;;;;4805109;29;20069;-77
2022/01/08 02:59:51;;;;;;;7.47;3.33;;;1.60;99.90;;;;;;4805592;29;20062;-76
2022/01/08 03:02:17;;;;;;;7.53;3.35;;;1.60;99.90;;;;;;4805116;29;20055;-76
2022/01/08 03:04:45;;;;;;;6.10;2.92;;;1.60;99.90;;;;;;4804336;29;20051;-76
2022/01/08 03:07:10;;;;;;;6.47;2.28;;;1.60;99.90;;;;;;4804779;29;20498;-76
2022/01/08 03:09:40;;;;;;;6.53;2.47;;;1.60;99.90;;;;;;4804546;29;20119;-76
2022/01/08 03:12:06;;;;;;;10.77;3.40;;;1.60;99.90;;;;;;4804953;29;20169;-77
2022/01/08 03:14:32;;;;;;;6.32;2.30;;;1.60;99.90;;;;;;4805282;29;20054;-77
2022/01/08 03:16:58;;;;;;;6.80;2.58;;;1.60;99.90;;;;;;4804507;29;20406;-79
2022/01/08 03:19:23;;;;;;;5.72;2.10;;;1.60;99.90;;;;;;4804027;29;20062;-76
2022/01/08 03:21:54;;;;;;;6.80;2.30;;;1.70;99.90;;;;;;4805318;29;20466;-76
2022/01/08 03:24:28;;;;;;;;;;;1.60;99.90;;;;;;4805186;29;20047;-76
2022/01/08 03:26:54;;;;;;;5.85;1.80;;;1.60;99.90;;;;;;4803666;29;19975;-76
2022/01/08 03:29:19;;;;;;;5.90;2.20;;;1.50;99.90;;;;;;4804668;29;20054;-76
2022/01/08 03:31:45;;;;;;;5.30;2.38;;;1.50;99.90;;;;;;4805270;29;20050;-76
2022/01/08 03:34:11;;;;;;;4.82;2.47;;;1.50;99.90;;;;;;4804818;29;20044;-77
2022/01/08 03:36:36;;;;;;;4.10;2.40;;;1.70;99.90;;;;;;4805498;29;20134;-76
2022/01/08 03:39:02;;;;;;;7.65;2.13;;;1.70;99.90;;;;;;4803587;29;20051;-77
2022/01/08 03:41:28;;;;;;;8.85;2.45;;;1.60;99.90;;;;;;4803927;29;20050;-76
2022/01/08 03:43:53;;;;;;;7.22;2.60;;;1.60;99.90;;;;;;4805369;29;20398;-77
2022/01/08 03:46:20;;;;;;;6.82;2.50;;;1.60;99.90;;;;;;4804919;29;20046;-76
2022/01/08 03:48:58;;;;;;;6.38;2.40;;;1.60;99.90;;;;;;4805405;29;20179;-76
2022/01/08 03:51:24;;;;;;;7.93;2.42;;;1.60;99.90;;;;;;4805093;29;20054;-76
2022/01/08 03:53:49;;;;;;;9.07;2.55;;;1.70;99.90;;;;;;4804085;29;20047;-76
2022/01/08 03:56:15;;;;;;;6.72;2.50;;;1.70;99.90;;;;;;4798006;29;20074;-77
2022/01/08 03:58:41;;;;;;;7.47;2.42;;;1.50;99.90;;;;;;4803979;29;20067;-76
2022/01/08 04:01:07;;;;;;;9.85;2.65;;;1.60;99.90;;;;;;4804425;29;20055;-76
2022/01/08 04:03:32;;;;;;;7.70;2.50;;;1.70;99.90;;;;;;4803745;29;20425;-77
2022/01/08 04:05:58;;;;;;;8.20;2.22;;;1.70;99.90;;;;;;4796912;29;20459;-76
2022/01/08 04:08:24;;;;;;;5.25;1.95;;;1.80;99.90;;;;;;4797506;29;20314;-76
2022/01/08 04:10:49;;;;;;;5.07;2.08;;;1.70;99.90;;;;;;4789289;29;20069;-77
2022/01/08 04:13:20;;;;;;;6.70;2.05;;;1.80;99.90;;;;;;4803746;29;20488;-76
2022/01/08 04:15:47;;;;;;;4.43;2.30;;;1.80;99.90;;;;;;4804964;29;20134;-76
2022/01/08 04:18:13;;;;;;;5.40;2.60;;;1.90;99.90;;;;;;4793301;29;20067;-77
2022/01/08 04:23:24;;;;;;;2.28;1.60;;;1.90;99.90;;;;;;4789887;29;20090;-76
2022/01/08 04:25:49;;;;;;;6.25;1.65;;;2.00;99.90;;;;;;4803564;29;20078;-77
2022/01/08 04:28:15;;;;;;;3.97;1.70;;;1.90;99.90;;;;;;4788519;29;20042;-77
2022/01/08 04:30:41;;;;;;;5.35;1.70;;;2.00;99.90;;;;;;4807210;29;20436;-76
2022/01/08 04:33:06;;;;;;;4.88;2.00;;;2.10;99.90;;;;;;4807191;29;20138;-77
2022/01/08 04:35:32;;;;;;;5.03;1.85;;;2.10;99.90;;;;;;4806632;29;20050;-77
2022/01/08 04:37:58;;;;;;;6.72;2.00;;;2.10;99.90;;;;;;4807087;29;20054;-77
2022/01/08 04:40:23;;;;;;;5.40;1.85;;;1.90;99.90;;;;;;4805375;29;20090;-76
2022/01/08 04:42:49;;;;;;;8.30;2.10;;;2.00;99.90;;;;;;4807696;29;20047;-76
2022/01/08 04:45:15;;;;;;;3.95;1.70;;;2.00;99.90;;;;;;4807443;29;20051;-76
2022/01/08 04:47:41;;;;;;;6.35;2.17;;;2.00;99.90;;;;;;4808289;29;20581;-76
2022/01/08 04:50:07;;;;;;;5.00;2.00;;;2.00;99.90;;;;;;4807796;29;20090;-76
2022/01/08 04:52:34;;;;;;;5.90;2.20;;;1.90;99.90;;;;;;4807393;29;20064;-76
2022/01/08 04:55:00;;;;;;;6.57;2.20;;;1.90;99.90;;;;;;4807645;29;20084;-76
2022/01/08 04:57:26;;;;;;;6.18;2.28;;;1.90;99.90;;;;;;4806759;29;20078;-77
2022/01/08 04:59:52;;;;;;;6.03;2.65;;;1.90;99.90;;;;;;4807666;29;20217;-76
2022/01/08 05:02:17;;;;;;;5.35;2.47;;;1.90;99.90;;;;;;4807006;29;20046;-76
2022/01/08 05:04:43;;;;;;;8.77;2.55;;;1.90;99.90;;;;;;4807577;29;20054;-76
2022/01/08 05:07:08;;;;;;;6.53;2.20;;;1.80;99.90;;;;;;4807675;29;20076;-77
2022/01/08 05:09:34;;;;;;;7.50;2.80;;;1.80;99.90;;;;;;4807031;29;20042;-76
2022/01/08 05:12:00;;;;;;;4.93;2.60;;;1.70;99.90;;;;;;4807394;29;20038;-76
2022/01/08 05:14:27;;;;;;;5.63;2.70;;;1.60;99.90;;;;;;4806821;29;20393;-76
2022/01/08 05:16:58;;;;;;;5.28;2.92;;;1.70;99.90;;;;;;4807274;29;20059;-77
2022/01/08 05:19:36;;;;;;;8.77;3.47;;;1.60;99.90;;;;;;4806782;29;20059;-76
2022/01/08 05:22:02;;;;;;;6.20;3.30;;;1.60;99.90;;;;;;4792447;29;20508;-76
2022/01/08 05:24:27;;;;;;;11.25;3.22;;;1.50;99.90;;;;;;4806742;29;20054;-76
2022/01/08 05:26:53;;;;;;;5.63;3.28;;;1.50;99.90;;;;;;4807368;29;20142;-76
2022/01/08 05:29:18;;;;;;;10.13;3.45;;;1.50;99.90;;;;;;4806950;29;20133;-77
2022/01/08 05:31:44;;;;;;;7.82;3.50;;;1.60;99.90;;;;;;4806821;29;20492;-76
2022/01/08 05:34:11;;;;;;;7.30;3.75;;;1.60;99.90;;;;;;4807241;29;20183;-76
2022/01/08 05:36:36;;;;;;;11.48;3.60;;;1.50;99.90;;;;;;4806987;29;20062;-76
2022/01/08 05:39:02;;;;;;;11.02;3.30;;;1.50;99.90;;;;;;4807231;29;20455;-77
2022/01/08 05:41:28;;;;;;;12.75;4.00;;;1.50;99.90;;;;;;4805994;29;20509;-77
2022/01/08 05:43:53;;;;;;;9.00;4.25;;;1.50;99.90;;;;;;4806231;29;20051;-77
2022/01/08 05:46:19;;;;;;;11.35;4.55;;;1.50;99.90;;;;;;4805496;29;20470;-78
2022/01/08 05:48:45;;;;;;;11.73;4.53;;;1.50;99.90;;;;;;4805405;29;20518;-76
2022/01/08 05:51:10;;;;;;;12.77;4.95;;;1.50;99.90;;;;;;4806837;29;20125;-76
2022/01/08 05:53:36;;;;;;;9.35;4.55;;;1.50;99.90;;;;;;4806657;29;20047;-76
2022/01/08 05:56:01;;;;;;;10.85;4.88;;;1.50;99.90;;;;;;4806721;29;20054;-77
2022/01/08 05:58:27;;;;;;;12.63;5.32;;;1.50;99.90;;;;;;4805342;29;20062;-81
2022/01/08 06:00:53;;;;;;;13.45;5.88;;;1.40;99.90;;;;;;4806828;29;20498;-78
2022/01/08 06:03:19;;;;;;;19.88;6.72;;;1.40;99.90;;;;;;4806604;29;20047;-78
2022/01/08 06:05:45;;;;;;;14.18;6.40;;;1.30;99.90;;;;;;4804950;29;20518;-79
2022/01/08 06:08:10;;;;;;;15.70;6.18;;;1.40;99.90;;;;;;4806776;29;20054;-78
2022/01/08 06:10:36;;;;;;;10.98;5.75;;;1.40;99.90;;;;;;4806254;29;20115;-78
2022/01/08 06:13:02;;;;;;;12.30;5.65;;;1.30;99.90;;;;;;4805586;29;20055;-79
2022/01/08 06:15:27;;;;;;;12.23;5.95;;;1.20;99.90;;;;;;4806156;29;20055;-79
2022/01/08 06:17:53;;;;;;;14.82;5.85;;;1.20;99.90;;;;;;4806309;29;20089;-79
2022/01/08 06:20:18;;;;;;;10.32;5.43;;;1.20;99.90;;;;;;4806517;29;20051;-79
2022/01/08 06:22:44;;;;;;;10.77;5.15;;;1.20;99.90;;;;;;4805980;29;20443;-80
2022/01/08 06:25:10;;;;;;;16.58;5.65;;;1.20;99.90;;;;;;4799512;29;20486;-79
2022/01/08 06:27:36;;;;;;;13.00;5.32;;;1.20;99.90;;;;;;4805569;29;20054;-78
2022/01/08 06:30:03;;;;;;;11.05;4.97;;;1.30;99.90;;;;;;4804894;29;20398;-80
2022/01/08 06:32:29;;;;;;;13.27;6.43;;;1.20;99.90;;;;;;4804998;29;20050;-78
2022/01/08 06:34:54;;;;;;;16.13;5.30;;;1.20;99.90;;;;;;4804699;29;20054;-78
2022/01/08 06:37:20;;;;;;;14.52;5.53;;;1.10;99.90;;;;;;4791265;29;20125;-78
2022/01/08 06:39:45;;;;;;;16.05;5.28;;;1.00;99.90;;;;;;4798834;29;20058;-78
2022/01/08 06:42:11;;;;;;;18.38;5.40;;;1.10;99.90;;;;;;4797422;29;20051;-78
2022/01/08 06:44:37;;;;;;;15.60;5.82;;;1.20;99.90;;;;;;4805320;29;20490;-78
2022/01/08 06:47:03;;;;;;;17.00;5.18;;;1.10;99.90;;;;;;4804560;29;20051;-79
2022/01/08 06:49:28;;;;;;;12.68;5.57;;;1.10;99.90;;;;;;4790821;29;20047;-80
2022/01/08 06:51:54;;;;;;;14.18;5.28;;;1.20;99.90;;;;;;4797119;29;20047;-78
2022/01/08 06:54:20;;;;;;;13.60;5.40;;;1.00;99.90;;;;;;4798261;29;20175;-80
2022/01/08 06:56:45;;;;;;;16.67;6.03;;;1.20;99.90;;;;;;4805041;29;20145;-80
2022/01/08 06:59:11;;;;;;;11.27;4.70;;;1.00;99.90;;;;;;4805956;29;20054;-79
2022/01/08 07:01:37;;;;;;;11.30;4.68;;;1.00;99.90;;;;;;4805734;29;20130;-79
2022/01/08 07:04:04;;;;;;;18.90;5.00;;;1.10;99.90;;;;;;4805780;29;20054;-79
2022/01/08 07:06:29;;;;;;;10.82;4.22;;;1.10;99.90;;;;;;4804358;29;20054;-82
2022/01/08 07:08:55;;;;;;;11.32;4.35;;;1.10;99.90;;;;;;4805603;29;20138;-79
2022/01/08 07:11:21;;;;;;;14.05;4.15;;;1.10;99.90;;;;;;4805528;29;20047;-79
2022/01/08 07:13:46;;;;;;;12.50;4.30;;;0.90;99.90;;;;;;4805193;29;20397;-77
2022/01/08 07:16:12;;;;;;;12.98;4.47;;;1.10;99.90;;;;;;4804424;29;20063;-79
2022/01/08 07:18:38;;;;;;;10.73;3.75;;;1.10;99.90;;;;;;4805074;29;20046;-79
2022/01/08 07:21:03;;;;;;;11.55;4.50;;;1.00;99.90;;;;;;4804639;29;20141;-79
2022/01/08 07:23:29;;;;;;;12.68;4.38;;;0.90;99.90;;;;;;4805426;29;20047;-78
2022/01/08 07:25:54;;;;;;;8.00;3.67;;;1.10;99.90;;;;;;4804761;29;20051;-79
2022/01/08 07:28:20;;;;;;;12.02;4.35;;;1.10;99.90;;;;;;4805253;29;20133;-79
2022/01/08 07:30:46;;;;;;;11.27;3.75;;;1.00;99.90;;;;;;4797092;29;20051;-79
2022/01/08 07:33:11;;;;;;;7.57;3.55;;;1.00;99.90;;;;;;4804689;29;20409;-79
2022/01/08 07:35:37;;;;;;;12.38;4.38;;;1.20;99.90;;;;;;4804584;29;20050;-79
2022/01/08 07:38:03;;;;;;;8.00;4.70;;;1.00;99.90;;;;;;4803868;29;20155;-80
2022/01/08 07:40:28;;;;;;;12.65;4.80;;;1.10;99.90;;;;;;4804091;29;20057;-80
2022/01/08 07:42:54;;;;;;;11.00;5.10;;;1.00;99.90;;;;;;4790674;29;20610;-79
2022/01/08 07:45:19;;;;;;;12.98;4.32;;;1.00;99.90;;;;;;4797598;29;20414;-78
2022/01/08 07:47:45;;;;;;;10.95;4.32;;;1.00;99.90;;;;;;4795584;29;20059;-79
2022/01/08 07:50:11;;;;;;;12.40;4.28;;;1.00;99.90;;;;;;4770937;30;20482;-79
2022/01/08 07:52:37;;;;;;;11.43;4.25;;;1.20;99.90;;;;;;4801845;29;20054;-79
2022/01/08 07:55:03;;;;;;;13.43;3.88;;;1.00;99.90;;;;;;4799797;29;20120;-79
2022/01/08 07:57:29;;;;;;;12.27;4.00;;;1.20;99.90;;;;;;4793864;29;20062;-80
2022/01/08 07:59:54;;;;;;;8.02;3.63;;;1.20;99.90;;;;;;4797031;29;20049;-79
2022/01/08 08:02:20;;;;;;;11.32;3.70;;;1.20;99.90;;;;;;4804434;29;20104;-79
2022/01/08 08:04:46;;;;;;;12.35;4.38;;;1.10;99.90;;;;;;4808238;29;20062;-78
2022/01/08 08:07:11;;;;;;;10.52;3.95;;;1.10;99.90;;;;;;4806946;29;20091;-79
2022/01/08 08:09:37;;;;;;;10.32;3.78;;;1.30;99.90;;;;;;4808689;29;20138;-79
2022/01/08 08:12:04;;;;;;;10.38;3.67;;;1.10;99.90;;;;;;4808408;29;20133;-79
2022/01/08 08:14:30;;;;;;;9.10;4.30;;;1.30;99.90;;;;;;4807670;29;20398;-78
2022/01/08 08:16:56;;;;;;;15.68;4.80;;;1.30;99.90;;;;;;4807944;29;20522;-78
2022/01/08 08:19:22;;;;;;;9.45;3.75;;;1.20;99.90;;;;;;4808420;29;20065;-78
2022/01/08 08:21:47;;;;;;;10.40;3.88;;;1.30;99.90;;;;;;4808053;29;20051;-78
2022/01/08 08:24:14;;;;;;;9.38;4.10;;;1.30;99.90;;;;;;4808515;29;20129;-77
2022/01/08 08:26:40;;;;;;;11.65;3.92;;;1.40;99.90;;;;;;4808413;29;20114;-78
2022/01/08 08:29:05;;;;;;;18.10;4.55;;;1.20;99.90;;;;;;4808518;29;20141;-77
2022/01/08 08:31:31;;;;;;;14.27;4.25;;;1.30;99.90;;;;;;4808365;29;20126;-77
2022/01/08 08:33:57;;;;;;;10.32;4.45;;;1.30;99.90;;;;;;4807997;29;20507;-77
2022/01/08 08:36:22;;;;;;;13.68;5.55;;;1.40;99.90;;;;;;4791957;29;20055;-77
2022/01/08 08:38:48;;;;;;;15.90;5.38;;;1.50;99.90;;;;;;4807795;29;20061;-77
2022/01/08 08:41:14;;;;;;;12.38;4.65;;;1.60;99.90;;;;;;4808209;29;20096;-76
2022/01/08 08:43:39;;;;;;;12.65;4.80;;;1.50;99.90;;;;;;4807893;29;20046;-76
2022/01/08 08:46:05;;;;;;;10.60;4.10;;;1.70;99.90;;;;;;4791764;29;20055;-76
2022/01/08 08:48:30;;;;;;;11.57;4.20;;;1.50;99.90;;;;;;4807823;29;20051;-76
2022/01/08 08:50:56;;;;;;;9.82;4.03;;;1.60;99.90;;;;;;4807370;29;20042;-76
2022/01/08 08:53:22;;;;;;;9.55;3.40;;;1.70;99.90;;;;;;4808130;29;20050;-76
2022/01/08 08:55:48;;;;;;;11.85;3.55;;;1.70;99.90;;;;;;4807481;29;20058;-76
2022/01/08 08:58:14;;;;;;;11.45;3.70;;;1.70;99.90;;;;;;4806926;29;20065;-76
2022/01/08 09:00:40;;;;;;;13.82;4.10;;;1.70;99.90;;;;;;4806602;29;20050;-83
2022/01/08 09:03:06;;;;;;;11.23;3.50;;;1.70;99.90;;;;;;4807315;29;20050;-75
2022/01/08 09:05:31;;;;;;;12.98;4.20;;;1.80;99.90;;;;;;4807662;29;20502;-75
2022/01/08 09:07:57;;;;;;;11.93;4.20;;;1.90;99.90;;;;;;4805947;29;20115;-75
2022/01/08 09:10:25;;;;;;;10.00;3.70;;;2.00;99.90;;;;;;4807713;29;20047;-75
2022/01/08 09:12:51;;;;;;;13.13;3.22;;;1.90;99.90;;;;;;4806366;29;20070;-76
2022/01/08 09:15:20;;;;;;;8.77;3.30;;;1.90;99.90;;;;;;4790753;29;20047;-75
2022/01/08 09:17:47;;;;;;;8.60;3.35;;;2.10;99.90;;;;;;4806675;29;20414;-75
2022/01/08 09:20:13;;;;;;;9.45;2.90;;;2.10;99.90;;;;;;4807256;29;20054;-75
2022/01/08 09:22:38;;;;;;;11.13;3.65;;;2.20;99.90;;;;;;4807826;29;20058;-75
2022/01/08 09:25:04;;;;;;;9.80;3.15;;;2.30;99.90;;;;;;4807109;29;20401;-75
2022/01/08 09:27:30;;;;;;;7.93;3.35;;;2.20;99.90;;;;;;4807473;29;20062;-75
2022/01/08 09:29:56;;;;;;;14.75;2.78;;;2.20;99.90;;;;;;4806862;29;20054;-76
2022/01/08 09:32:23;;;;;;;10.98;3.63;;;2.30;99.90;;;;;;4791335;29;20394;-75
2022/01/08 09:34:49;;;;;;;9.13;3.20;;;2.50;99.90;;;;;;4807218;29;20090;-75
2022/01/08 09:37:15;;;;;;;9.35;3.35;;;2.40;99.90;;;;;;4807082;29;20050;-75
2022/01/08 09:39:41;;;;;;;10.32;3.58;;;2.40;99.90;;;;;;4806877;29;20509;-75
2022/01/08 09:42:10;;;;;;;15.60;3.60;;;2.50;99.90;;;;;;4801083;29;20035;-75
2022/01/08 09:44:42;;;;;;;12.60;3.10;;;2.50;99.90;;;;;;4806021;29;20497;-76
2022/01/08 09:47:08;;;;;;;9.77;3.17;;;2.50;99.90;;;;;;4805285;29;20066;-78
2022/01/08 09:49:33;;;;;;;10.95;3.42;;;2.40;99.90;;;;;;4806788;29;20494;-77
2022/01/08 09:52:00;;;;;;;9.10;3.33;;;2.40;99.90;;;;;;4790202;29;20057;-78
2022/01/08 09:54:27;;;;;;;9.13;3.25;;;2.50;99.90;;;;;;4806419;29;20578;-76
2022/01/08 09:56:53;;;;;;;10.50;3.47;;;2.50;99.90;;;;;;4805311;29;20566;-76
2022/01/08 09:59:19;;;;;;;11.88;4.25;;;2.50;99.90;;;;;;4806592;29;20063;-76
2022/01/08 10:01:52;;;;;;;9.20;3.92;;;2.50;99.90;;;;;;4806597;29;20050;-76
2022/01/08 10:04:23;;;;;;;15.57;3.80;;;2.70;99.90;;;;;;4803959;29;20059;-77
2022/01/08 10:06:49;;;;;;;11.68;4.00;;;2.70;99.90;;;;;;4797975;29;20490;-76
2022/01/08 10:09:14;;;;;;;9.85;3.60;;;2.70;99.90;;;;;;4801583;29;20396;-76
2022/01/08 10:11:49;;;;;;;13.85;3.88;;;2.70;99.90;;;;;;4805604;29;20053;-76
2022/01/08 10:14:27;;;;;;;11.80;3.60;;;2.90;99.90;;;;;;4804454;29;20062;-77
2022/01/08 10:19:37;;;;;;;6.82;3.65;;;3.00;99.90;;;;;;4806094;29;20129;-76
2022/01/08 10:22:03;;;;;;;9.57;4.05;;;2.90;99.90;;;;;;4805165;29;20467;-77
2022/01/08 10:24:29;;;;;;;12.27;4.50;;;3.00;99.90;;;;;;4804541;29;20502;-77
2022/01/08 10:27:05;;;;;;;12.15;4.10;;;3.10;99.90;;;;;;4798270;29;20120;-76
2022/01/08 10:29:31;;;;;;;11.80;4.30;;;3.10;99.90;;;;;;4805926;29;20439;-80
2022/01/08 10:31:58;;;;;;;9.68;4.28;;;3.10;99.90;;;;;;4804144;29;20042;-76
2022/01/08 10:34:30;;;;;;;11.55;4.55;;;3.10;99.90;;;;;;4805993;29;20055;-76
2022/01/08 10:36:59;;;;;;;8.75;4.30;;;3.20;99.90;;;;;;4803012;29;20498;-78
2022/01/08 10:39:35;;;;;;;9.98;4.47;;;3.30;99.90;;;;;;4804776;29;20059;-76
2022/01/08 10:42:13;;;;;;;11.70;5.00;;;3.30;99.90;;;;;;4803767;29;20053;-78
2022/01/08 10:44:39;;;;;;;9.05;4.75;;;3.40;99.90;;;;;;4804559;29;20137;-77
2022/01/08 10:47:06;;;;;;;11.52;4.75;;;3.40;99.90;;;;;;4789634;29;20125;-77
2022/01/08 10:49:35;;;;;;;12.50;5.15;;;3.50;99.90;;;;;;4804420;29;20047;-76
2022/01/08 10:52:04;;;;;;;11.13;4.95;;;3.50;99.90;;;;;;4805354;29;20406;-76
2022/01/08 10:54:30;;;;;;;10.63;4.88;;;3.60;99.90;;;;;;4804994;29;20115;-75
2022/01/08 10:57:00;;;;;;;13.68;4.75;;;3.60;99.90;;;;;;4805514;29;20059;-75
2022/01/08 10:59:26;;;;;;;12.85;5.10;;;3.60;99.90;;;;;;4789366;29;20057;-75
2022/01/08 11:02:03;;;;;;;9.20;5.20;;;3.70;99.90;;;;;;4805386;29;20379;-75
2022/01/08 11:04:46;;;;;;;14.05;5.50;;;3.70;99.90;;;;;;4805611;29;20046;-75
2022/01/08 11:07:30;;;;;;;15.05;5.35;;;3.70;99.90;;;;;;4787466;29;20086;-75
2022/01/08 11:10:05;;;;;;;11.45;5.13;;;3.60;99.90;;;;;;4796163;29;20067;-75
2022/01/08 11:12:36;;;;;;;14.32;4.78;;;3.70;99.90;;;;;;4805166;29;20084;-75
2022/01/08 11:17:55;;;;;;;8.68;4.63;;;3.70;99.90;;;;;;4805666;29;19968;-75
2022/01/08 11:20:22;;;;;;;13.65;4.85;;;3.70;99.90;;;;;;4794256;29;20061;-79
2022/01/08 11:22:52;;;;;;;14.25;4.88;;;3.70;99.90;;;;;;4804576;29;20535;-78
2022/01/08 11:25:27;;;;;;;10.40;4.97;;;3.80;99.90;;;;;;4789232;29;20066;-78
2022/01/08 11:28:14;;;;;;;11.40;4.85;;;3.80;99.90;;;;;;4804445;29;20047;-78
2022/01/08 11:30:41;;;;;;;9.50;4.65;;;3.90;99.90;;;;;;4812219;29;20048;-78
2022/01/08 11:33:19;;;;;;;13.32;5.55;;;3.90;99.90;;;;;;4802512;29;20065;-76
2022/01/08 11:35:45;;;;;;;17.60;6.07;;;3.90;99.90;;;;;;4803392;29;20046;-76
2022/01/08 11:38:12;;;;;;;12.73;5.68;;;3.90;99.90;;;;;;4801984;29;20074;-76
2022/01/08 11:40:41;;;;;;;9.80;5.50;;;3.90;99.90;;;;;;4803230;29;20042;-75
2022/01/08 11:43:08;;;;;;;11.13;5.50;;;4.00;99.90;;;;;;4804874;29;20394;-75
2022/01/08 11:45:40;;;;;;;9.18;6.07;;;4.00;99.90;;;;;;4788666;29;20086;-76
2022/01/08 11:48:07;;;;;;;13.98;5.57;;;4.00;99.90;;;;;;4803104;29;20051;-76
2022/01/08 11:50:33;;;;;;;15.90;6.10;;;4.10;99.90;;;;;;4802770;29;20055;-76
2022/01/08 11:53:18;;;;;;;11.18;6.10;;;4.10;99.90;;;;;;4785878;29;20120;-75
2022/01/08 11:55:57;;;;;;;12.25;5.78;;;4.10;99.90;;;;;;4803243;29;20051;-75
2022/01/08 11:58:28;;;;;;;10.98;6.07;;;4.10;99.90;;;;;;4795693;29;20053;-76
2022/01/08 12:00:58;;;;;;;13.98;7.10;;;4.20;99.90;;;;;;4803281;29;20108;-75
2022/01/08 12:03:41;;;;;;;16.63;7.00;;;4.20;99.90;;;;;;4803331;29;20038;-76
2022/01/08 12:06:22;;;;;;;13.43;6.53;;;4.20;99.90;;;;;;4801882;29;20054;-75
2022/01/08 12:09:18;;;;;;;16.02;7.82;;;4.20;99.90;;;;;;4804584;29;20055;-76
2022/01/08 12:11:47;;;;;;;15.98;7.35;;;4.20;99.90;;;;;;4805009;29;20046;-76
2022/01/08 12:14:18;;;;;;;16.00;7.50;;;4.20;99.90;;;;;;4804328;29;20127;-76
2022/01/08 12:16:45;;;;;;;13.75;7.88;;;4.20;99.90;;;;;;4803790;29;20086;-76
2022/01/08 12:19:29;;;;;;;16.08;8.00;;;4.20;99.90;;;;;;4804846;29;20051;-76
2022/01/08 12:21:55;;;;;;;12.88;7.53;;;4.30;99.90;;;;;;4804741;29;20058;-75
2022/01/08 12:24:27;;;;;;;17.15;8.18;;;4.20;99.90;;;;;;4804356;29;20042;-77
2022/01/08 12:26:54;;;;;;;16.08;8.75;;;4.30;99.90;;;;;;4804912;29;20053;-75
2022/01/08 12:29:38;;;;;;;17.55;9.38;;;4.30;99.90;;;;;;4804373;29;20127;-75
2022/01/08 12:32:37;;;;;;;20.25;9.50;;;4.40;99.90;;;;;;4804816;29;20059;-75
2022/01/08 12:35:15;;;;;;;14.05;9.65;;;4.40;99.90;;;;;;4804800;29;20072;-76
2022/01/08 12:37:43;;;;;;;15.80;10.40;;;4.40;99.90;;;;;;4804513;29;20483;-76
2022/01/08 12:40:10;;;;;;;14.25;10.15;;;4.40;99.90;;;;;;4804769;29;20054;-77
2022/01/08 12:42:43;;;;;;;18.00;11.23;;;4.40;99.90;;;;;;4788253;29;20989;-76
2022/01/08 12:45:19;;;;;;;12.20;9.98;;;4.40;99.90;;;;;;4803827;29;20054;-76
2022/01/08 12:47:56;;;;;;;17.75;11.52;;;4.40;99.90;;;;;;4803518;29;20389;-76
2022/01/08 12:50:29;;;;;;;16.60;12.18;;;4.40;99.90;;;;;;4805294;29;20055;-77
2022/01/08 12:53:06;;;;;;;17.55;12.07;;;4.40;99.90;;;;;;4806465;29;20529;-77
2022/01/08 12:55:54;;;;;;;20.38;12.60;;;4.40;99.90;;;;;;4807154;29;20466;-78
2022/01/08 12:58:29;;;;;;;19.75;12.23;;;4.50;99.90;;;;;;4807290;29;20055;-77
2022/01/08 13:00:58;;;;;;;18.63;11.93;;;4.40;99.90;;;;;;4806563;29;20060;-77
2022/01/08 13:03:31;;;;;;;14.50;12.30;;;4.40;99.90;;;;;;4806104;29;20086;-77
2022/01/08 13:06:20;;;;;;;18.90;12.35;;;4.40;99.90;;;;;;4808084;29;20047;-77
2022/01/08 13:08:47;;;;;;;16.25;11.65;;;4.40;99.90;;;;;;4806420;29;20047;-76
2022/01/08 13:11:14;;;;;;;14.05;12.20;;;4.40;99.90;;;;;;4806447;29;20072;-75
2022/01/08 13:13:51;;;;;;;16.83;12.50;;;4.40;99.90;;;;;;4807103;29;20047;-77
2022/01/08 13:16:28;;;;;;;16.88;12.38;;;4.40;99.90;;;;;;4807356;29;20053;-77
2022/01/08 13:19:08;;;;;;;16.63;12.15;;;4.30;99.90;;;;;;4806147;29;20572;-76